Pagrindinis puslapis
METAR-TAF:

METAR-TAF

Oro uostai :

Štutgartas, Vokietija

platuma: 48-41N, ilguma: 009-13E, Aukštis: 396 m

Dabartinis oras

Ataskaita buvo paskelbta 18 minutes, ne 20:20 UTC
Vėjas 4 kt iš Rytų/Šiaurės Rytų
Temperatūra 10°C
Drėgmė 62%
Slėgis 1025 hPa
Matomumas 10 km arba daugiau
nėra debesų žemiau 1500 m ir nėra kamuolinių lietaus debesų

METAR: EDDS 202020Z 06004KT CAVOK 10/03 Q1025

Laikas: 22:38 (20:38 UTC)

Prognozė

Ataskaita buvo paskelbta 3 valandos ir 38 minutes, ne 17:00 UTC
Prognozė galioja nuo 20 metu 18 UTC su 21 metu 18 UTC
Vėjas 5 kt iš Rytų
Matomumas 10 km arba daugiau
nėra debesų žemiau 1500 m ir nėra kamuolinių lietaus debesų

TAF: EDDS 201700Z 2018/2118 08005KT CAVOK

Orai ataskaitas ir orų prognozės (METAR, TAF).

turimą stotys yra geltonos ir raudonos taškus žemėlapyje.

Perkelti pele per norėdami pamatyti stoties vardą.

Tada spustelėkite, norėdami matyti oro stebėjimo ir prognozės.

Norėdami pakeisti žemėlapį: spustelėkite ant žalios mygtukų su juodo kryžiaus žemyn,; žalią mygtuką su brūkšneliu, jei norite nutolinti; arba žalių rodyklių gretimoms žemėlapius.


METAR-TAF: